Time;durP1;ratioP1;P1;durP2;ratioP2;P2;SDS_P1;SDS_P2;PMS_P1;PMS_P2;Temp;Humidity;BMP_temperature;BMP_pressure;BME280_temperature;BME280_humidity;BME280_pressure;Samples;Min_cycle;Max_cycle;Signal;HPM_P1;HPM_P2
2022/08/19 00:02:46;;;;;;;7.00;3.65;;;16.10;99.90;;;;;;4971684;28;20049;-80
2022/08/19 00:05:32;;;;;;;6.75;3.10;;;16.10;99.90;;;;;;4957605;28;20051;-81
2022/08/19 00:08:19;;;;;;;8.90;4.32;;;16.00;99.90;;;;;;4971538;28;20112;-81
2022/08/19 00:11:05;;;;;;;7.70;3.33;;;16.00;99.90;;;;;;4971248;28;20435;-81
2022/08/19 00:13:53;;;;;;;6.55;3.03;;;15.90;99.90;;;;;;4971680;28;20549;-81
2022/08/19 00:16:41;;;;;;;7.13;2.95;;;15.90;99.90;;;;;;4957644;28;20059;-81
2022/08/19 00:19:27;;;;;;;5.82;2.67;;;15.80;99.90;;;;;;4970990;28;20061;-81
2022/08/19 00:22:17;;;;;;;9.43;3.88;;;15.80;99.90;;;;;;4957019;28;20050;-81
2022/08/19 00:25:05;;;;;;;10.23;5.38;;;15.80;99.90;;;;;;4970669;28;20059;-82
2022/08/19 00:27:51;;;;;;;10.30;6.30;;;15.80;99.90;;;;;;4972994;28;20054;-81
2022/08/19 00:30:38;;;;;;;9.98;5.45;;;15.80;99.90;;;;;;4971951;28;20153;-82
2022/08/19 00:33:24;;;;;;;11.35;6.20;;;15.80;99.90;;;;;;4970703;28;20407;-81
2022/08/19 00:36:11;;;;;;;13.35;5.65;;;15.80;99.90;;;;;;4984073;28;20073;-82
2022/08/19 00:38:58;;;;;;;12.25;6.63;;;15.80;99.90;;;;;;4957374;28;20411;-81
2022/08/19 00:41:47;;;;;;;11.98;8.02;;;15.80;99.90;;;;;;4971274;28;20113;-81
2022/08/19 00:44:33;;;;;;;13.13;8.23;;;15.80;99.90;;;;;;4971710;28;20055;-81
2022/08/19 00:47:19;;;;;;;11.23;7.20;;;15.80;99.90;;;;;;4972276;28;20403;-81
2022/08/19 00:50:09;;;;;;;12.55;8.13;;;15.80;99.90;;;;;;4983994;28;20061;-81
2022/08/19 00:52:56;;;;;;;14.20;7.65;;;15.80;99.90;;;;;;4970572;28;20051;-81
2022/08/19 00:55:45;;;;;;;14.30;7.72;;;15.70;99.90;;;;;;4969590;28;20050;-81
2022/08/19 00:58:34;;;;;;;11.98;7.07;;;15.70;99.90;;;;;;4957841;28;20059;-81
2022/08/19 01:01:21;;;;;;;10.40;6.32;;;15.70;99.90;;;;;;4983927;28;20050;-81
2022/08/19 01:04:07;;;;;;;11.07;7.78;;;15.70;99.90;;;;;;4971972;28;20086;-81
2022/08/19 01:06:54;;;;;;;12.38;7.53;;;15.70;99.90;;;;;;4972047;28;20055;-80
2022/08/19 01:09:40;;;;;;;8.93;5.55;;;15.70;99.90;;;;;;4971729;28;20070;-81
2022/08/19 01:12:26;;;;;;;13.38;7.32;;;15.70;99.90;;;;;;4971472;28;20487;-80
2022/08/19 01:15:16;;;;;;;14.10;7.35;;;15.70;99.90;;;;;;4970538;28;20046;-81
2022/08/19 01:18:07;;;;;;;16.10;8.85;;;15.60;99.90;;;;;;4972151;28;20054;-81
2022/08/19 01:20:56;;;;;;;12.55;7.85;;;15.60;99.90;;;;;;4970616;28;20519;-81
2022/08/19 01:23:43;;;;;;;14.80;8.27;;;15.60;99.90;;;;;;4969825;28;20388;-81
2022/08/19 01:26:30;;;;;;;12.70;7.55;;;15.60;99.90;;;;;;4972540;28;20086;-81
2022/08/19 01:29:16;;;;;;;11.38;7.65;;;15.60;99.90;;;;;;4971951;28;20098;-81
2022/08/19 01:32:03;;;;;;;12.57;7.75;;;15.60;99.90;;;;;;4971934;28;20091;-81
2022/08/19 01:34:49;;;;;;;12.07;8.18;;;15.60;99.90;;;;;;4970924;28;20050;-80
2022/08/19 01:37:52;;;;;;;14.05;9.30;;;15.50;99.90;;;;;;4970851;28;20047;-80
2022/08/19 01:40:42;;;;;;;12.10;8.40;;;15.50;99.90;;;;;;4970221;28;20145;-81
2022/08/19 01:43:28;;;;;;;12.13;7.85;;;15.50;99.90;;;;;;4983835;28;20074;-80
2022/08/19 01:46:14;;;;;;;13.23;8.60;;;15.50;99.90;;;;;;4973912;28;20522;-81
2022/08/19 01:49:05;;;;;;;11.65;8.07;;;15.50;99.90;;;;;;4975227;28;20051;-81
2022/08/19 01:51:54;;;;;;;12.48;7.20;;;15.50;99.90;;;;;;4974793;28;20101;-81
2022/08/19 01:54:40;;;;;;;17.52;9.27;;;15.50;99.90;;;;;;4974557;28;20502;-81
2022/08/19 01:57:27;;;;;;;11.77;8.18;;;15.50;99.90;;;;;;4975241;28;20043;-81
2022/08/19 02:00:16;;;;;;;12.65;7.43;;;15.50;99.90;;;;;;4975848;28;20054;-82
2022/08/19 02:03:02;;;;;;;10.98;7.68;;;15.50;99.90;;;;;;4974986;28;20047;-81
2022/08/19 02:05:54;;;;;;;11.68;8.23;;;15.40;99.90;;;;;;4972728;28;20438;-81
2022/08/19 02:08:41;;;;;;;14.35;7.05;;;15.40;99.90;;;;;;4974750;28;20047;-81
2022/08/19 02:11:33;;;;;;;10.48;7.28;;;15.40;99.90;;;;;;4974181;28;20481;-81
2022/08/19 02:14:19;;;;;;;16.52;7.82;;;15.40;99.90;;;;;;4972398;28;20105;-81
2022/08/19 02:17:06;;;;;;;13.60;8.18;;;15.40;99.90;;;;;;4974340;28;20054;-81
2022/08/19 02:19:52;;;;;;;10.48;7.22;;;15.40;99.90;;;;;;4973454;28;20050;-81
2022/08/19 02:22:41;;;;;;;14.52;8.00;;;15.40;99.90;;;;;;4974295;28;20415;-82
2022/08/19 02:25:27;;;;;;;12.48;8.73;;;15.40;99.90;;;;;;4973002;28;20110;-81
2022/08/19 02:28:14;;;;;;;14.35;9.25;;;15.40;99.90;;;;;;4974066;28;20047;-81
2022/08/19 02:31:02;;;;;;;10.20;7.55;;;15.40;99.90;;;;;;4973879;28;20499;-81
2022/08/19 02:33:48;;;;;;;13.38;7.35;;;15.40;99.90;;;;;;4974610;28;20054;-81
2022/08/19 02:36:34;;;;;;;14.27;9.40;;;15.40;99.90;;;;;;4973024;28;20097;-80
2022/08/19 02:39:20;;;;;;;12.52;9.00;;;15.40;99.90;;;;;;4972114;28;20065;-81
2022/08/19 02:42:07;;;;;;;12.80;7.88;;;15.40;99.90;;;;;;4972082;28;20054;-80
2022/08/19 02:44:55;;;;;;;15.63;10.13;;;15.40;99.90;;;;;;4972380;28;20055;-81
2022/08/19 02:47:42;;;;;;;20.30;12.45;;;15.40;99.90;;;;;;4958962;28;20051;-80
2022/08/19 02:50:29;;;;;;;16.77;11.88;;;15.40;99.90;;;;;;4972830;28;20062;-82
2022/08/19 02:53:15;;;;;;;17.30;11.23;;;15.40;99.90;;;;;;4973575;28;20058;-82
2022/08/19 02:56:01;;;;;;;16.88;11.30;;;15.40;99.90;;;;;;4974115;28;20146;-81
2022/08/19 02:58:48;;;;;;;18.13;12.15;;;15.40;99.90;;;;;;4972670;28;20046;-81
2022/08/19 03:01:34;;;;;;;19.58;12.02;;;15.40;99.90;;;;;;4973373;28;20062;-81
2022/08/19 03:04:20;;;;;;;17.98;11.90;;;15.40;99.90;;;;;;4972380;28;20055;-80
2022/08/19 03:07:06;;;;;;;15.75;10.73;;;15.40;99.90;;;;;;4972923;28;20126;-81
2022/08/19 03:09:53;;;;;;;21.77;13.35;;;15.40;99.90;;;;;;4972680;28;20089;-81
2022/08/19 03:12:39;;;;;;;19.52;11.38;;;15.40;99.90;;;;;;4973483;28;20509;-82
2022/08/19 03:15:25;;;;;;;22.92;13.13;;;15.40;99.90;;;;;;4972429;28;20054;-81
2022/08/19 03:18:13;;;;;;;19.80;13.45;;;15.40;99.90;;;;;;4972817;28;20061;-81
2022/08/19 03:20:59;;;;;;;20.65;12.32;;;15.40;99.90;;;;;;4971855;28;20058;-80
2022/08/19 03:23:45;;;;;;;21.15;11.43;;;15.40;99.90;;;;;;4972831;28;20513;-82
2022/08/19 03:26:32;;;;;;;16.52;11.88;;;15.40;99.90;;;;;;4972911;28;20172;-82
2022/08/19 03:29:19;;;;;;;21.73;12.93;;;15.40;99.90;;;;;;4971198;28;20055;-82
2022/08/19 03:32:05;;;;;;;20.25;11.13;;;15.40;99.90;;;;;;4972440;28;20502;-82
2022/08/19 03:34:52;;;;;;;19.83;12.02;;;15.40;99.90;;;;;;4971193;28;20491;-82
2022/08/19 03:37:38;;;;;;;22.92;12.60;;;15.40;99.90;;;;;;4971913;28;20538;-81
2022/08/19 03:40:25;;;;;;;18.50;12.10;;;15.30;99.90;;;;;;4971546;28;20508;-82
2022/08/19 03:43:11;;;;;;;15.70;11.05;;;15.30;99.90;;;;;;4970796;28;20093;-81
2022/08/19 03:46:06;;;;;;;15.75;10.38;;;15.30;99.90;;;;;;4971740;28;20129;-83
2022/08/19 03:48:55;;;;;;;20.38;11.82;;;15.30;99.90;;;;;;4973177;28;20067;-82
2022/08/19 03:51:43;;;;;;;16.85;11.38;;;15.30;99.90;;;;;;4971445;28;20089;-82
2022/08/19 03:54:29;;;;;;;17.52;11.02;;;15.20;99.90;;;;;;4972098;28;20073;-81
2022/08/19 03:57:15;;;;;;;18.05;11.38;;;15.20;99.90;;;;;;4971370;28;20116;-83
2022/08/19 04:00:05;;;;;;;13.95;10.73;;;15.20;99.90;;;;;;4971145;28;20593;-81
2022/08/19 04:02:51;;;;;;;22.02;12.00;;;15.20;99.90;;;;;;4970841;28;20487;-81
2022/08/19 04:05:37;;;;;;;16.33;11.70;;;15.20;99.90;;;;;;4971712;28;20133;-81
2022/08/19 04:08:23;;;;;;;13.30;9.25;;;15.20;99.90;;;;;;4970751;28;20499;-81
2022/08/19 04:11:12;;;;;;;20.20;11.20;;;15.20;99.90;;;;;;4972734;28;20050;-81
2022/08/19 04:14:00;;;;;;;10.88;8.32;;;15.30;99.90;;;;;;4970875;28;20139;-81
2022/08/19 04:16:48;;;;;;;19.08;10.60;;;15.30;99.90;;;;;;4984357;28;20491;-81
2022/08/19 04:19:36;;;;;;;12.43;9.07;;;15.30;99.90;;;;;;4969787;28;20054;-81
2022/08/19 04:22:22;;;;;;;17.98;10.35;;;15.30;99.90;;;;;;4972824;28;20047;-81
2022/08/19 04:25:09;;;;;;;16.25;10.07;;;15.30;99.90;;;;;;4957787;28;20522;-82
2022/08/19 04:27:55;;;;;;;19.83;10.70;;;15.30;99.90;;;;;;4970014;28;20059;-81
2022/08/19 04:30:53;;;;;;;24.83;11.15;;;15.30;99.90;;;;;;4971426;28;20042;-81
2022/08/19 04:33:39;;;;;;;16.40;10.40;;;15.30;99.90;;;;;;4971592;28;20047;-81
2022/08/19 04:36:32;;;;;;;15.80;10.30;;;15.30;99.90;;;;;;4970342;28;20133;-81
2022/08/19 04:42:38;;;;;;;19.38;11.18;;;15.30;99.90;;;;;;4971696;28;20178;-81
2022/08/19 04:42:40;;;;;;;;;;;15.40;99.90;;;;;;4971623;28;20093;-81
2022/08/19 04:45:26;;;;;;;19.25;10.05;;;15.40;99.90;;;;;;4959068;28;19928;-80
2022/08/19 04:48:13;;;;;;;17.85;10.57;;;15.40;99.90;;;;;;4972200;28;20050;-80
2022/08/19 04:50:59;;;;;;;19.25;11.43;;;15.50;99.90;;;;;;4957876;28;20190;-82
2022/08/19 04:53:45;;;;;;;17.17;11.32;;;15.50;99.90;;;;;;4971261;28;20054;-80
2022/08/19 04:56:31;;;;;;;14.95;9.90;;;15.50;99.90;;;;;;4956506;28;20145;-80
2022/08/19 04:59:19;;;;;;;18.45;10.52;;;15.60;99.90;;;;;;4971940;28;20518;-81
2022/08/19 05:02:09;;;;;;;19.90;10.57;;;15.60;99.90;;;;;;4970429;28;20536;-80
2022/08/19 05:05:00;;;;;;;15.43;9.88;;;15.60;99.90;;;;;;4957204;28;20077;-81
2022/08/19 05:07:47;;;;;;;15.20;10.18;;;15.70;99.90;;;;;;4970947;28;20506;-81
2022/08/19 05:10:37;;;;;;;16.85;9.90;;;15.70;99.90;;;;;;4970416;28;20090;-81
2022/08/19 05:13:24;;;;;;;16.58;10.60;;;15.70;99.90;;;;;;4970134;28;20109;-83
2022/08/19 05:16:13;;;;;;;16.73;10.88;;;15.80;99.90;;;;;;4970411;28;20051;-80
2022/08/19 05:25:12;;;;;;;16.00;10.73;;;16.00;99.90;;;;;;4975378;28;20416;-81
2022/08/19 05:27:58;;;;;;;16.00;11.15;;;16.10;99.90;;;;;;4974047;28;20058;-82
2022/08/19 05:30:45;;;;;;;18.48;11.50;;;16.20;99.90;;;;;;4960430;28;20055;-82
2022/08/19 05:33:32;;;;;;;14.13;10.38;;;16.20;99.90;;;;;;4960379;28;20053;-81
2022/08/19 05:36:19;;;;;;;16.67;10.40;;;16.40;99.90;;;;;;4974613;28;20082;-82
2022/08/19 05:39:07;;;;;;;16.55;11.27;;;16.40;99.90;;;;;;4972917;28;20050;-81
2022/08/19 05:42:06;;;;;;;17.42;10.57;;;16.50;99.90;;;;;;4973369;28;20062;-81
2022/08/19 05:44:53;;;;;;;16.83;11.98;;;16.60;99.90;;;;;;4959612;28;20577;-81
2022/08/19 05:47:39;;;;;;;15.02;10.73;;;16.60;99.90;;;;;;4973271;28;20097;-81
2022/08/19 05:50:26;;;;;;;13.18;9.85;;;16.70;99.90;;;;;;4975438;28;20499;-81
2022/08/19 05:53:16;;;;;;;16.65;10.38;;;16.80;99.90;;;;;;4975545;28;20054;-82
2022/08/19 05:56:07;;;;;;;14.45;10.05;;;16.90;99.90;;;;;;4974102;28;20046;-81
2022/08/19 05:58:53;;;;;;;20.13;11.35;;;17.00;99.90;;;;;;4973849;28;20054;-81
2022/08/19 06:01:43;;;;;;;16.05;10.80;;;17.00;99.90;;;;;;4973941;28;20058;-81
2022/08/19 06:04:30;;;;;;;16.90;12.10;;;17.10;99.90;;;;;;4972196;28;20051;-82
2022/08/19 06:07:16;;;;;;;17.00;11.50;;;17.20;99.90;;;;;;4973314;28;20059;-81
2022/08/19 06:10:11;;;;;;;17.13;11.00;;;17.30;99.90;;;;;;4974555;28;20494;-82
2022/08/19 06:12:57;;;;;;;19.52;11.57;;;17.40;99.90;;;;;;4974079;28;20105;-80
2022/08/19 06:15:44;;;;;;;15.95;11.48;;;17.40;99.90;;;;;;4972467;28;20058;-80
2022/08/19 06:18:30;;;;;;;15.07;11.75;;;17.50;99.90;;;;;;4973801;28;20537;-81
2022/08/19 06:21:16;;;;;;;17.95;11.65;;;17.60;99.90;;;;;;4971775;28;20042;-81
2022/08/19 06:24:06;;;;;;;16.55;10.60;;;17.70;99.90;;;;;;4974193;28;20168;-82
2022/08/19 06:26:54;;;;;;;16.77;11.48;;;17.80;99.90;;;;;;4973294;28;20051;-81
2022/08/19 06:29:42;;;;;;;17.77;11.60;;;17.90;99.90;;;;;;4971117;28;20052;-81
2022/08/19 06:32:28;;;;;;;15.73;11.23;;;18.00;99.90;;;;;;4974600;28;20491;-80
2022/08/19 06:35:15;;;;;;;16.50;11.27;;;18.10;99.90;;;;;;4974504;28;20050;-82
2022/08/19 06:38:01;;;;;;;14.55;10.25;;;18.20;99.90;;;;;;4975244;28;20462;-82
2022/08/19 06:40:47;;;;;;;15.00;12.13;;;18.30;99.90;;;;;;4974706;28;20062;-81
2022/08/19 06:43:33;;;;;;;16.55;11.15;;;18.40;99.90;;;;;;4959831;28;20051;-82
2022/08/19 06:46:20;;;;;;;16.13;10.68;;;18.50;99.90;;;;;;4973246;28;20042;-82
2022/08/19 06:49:11;;;;;;;17.88;11.35;;;18.60;99.90;;;;;;4973462;28;20074;-82
2022/08/19 06:51:58;;;;;;;16.45;11.57;;;18.80;99.90;;;;;;4958786;28;20062;-82
2022/08/19 06:54:44;;;;;;;13.80;10.65;;;19.00;99.90;;;;;;4972220;28;20047;-82
2022/08/19 06:57:32;;;;;;;17.00;10.98;;;19.20;99.90;;;;;;4973159;28;20053;-82
2022/08/19 07:00:19;;;;;;;17.08;10.30;;;19.30;99.90;;;;;;4972279;28;20051;-81
2022/08/19 07:03:05;;;;;;;15.48;10.65;;;19.50;99.90;;;;;;4973838;28;20050;-82
2022/08/19 07:05:51;;;;;;;19.58;11.07;;;19.60;99.90;;;;;;4973010;28;20047;-81
2022/08/19 07:08:40;;;;;;;13.95;10.70;;;19.70;99.90;;;;;;4971577;28;20059;-81
2022/08/19 07:11:30;;;;;;;17.75;10.88;;;19.80;99.90;;;;;;4958394;28;20056;-81
2022/08/19 07:14:19;;;;;;;15.15;9.80;;;20.00;99.90;;;;;;4971977;28;20051;-81
2022/08/19 07:17:09;;;;;;;13.65;9.80;;;20.10;99.90;;;;;;4973231;28;20055;-81
2022/08/19 07:19:55;;;;;;;12.73;9.35;;;20.30;99.90;;;;;;4974003;28;20446;-80
2022/08/19 07:22:41;;;;;;;16.45;10.45;;;20.30;99.90;;;;;;4972842;28;20061;-81
2022/08/19 07:25:28;;;;;;;15.25;9.93;;;20.40;99.90;;;;;;4971773;28;20050;-81
2022/08/19 07:28:14;;;;;;;14.32;10.60;;;20.60;99.90;;;;;;4971680;28;20047;-81
2022/08/19 07:31:06;;;;;;;13.70;10.15;;;20.70;99.90;;;;;;4981360;28;20387;-82
2022/08/19 07:33:55;;;;;;;13.18;10.35;;;20.90;99.90;;;;;;4958968;28;20126;-82
2022/08/19 07:36:43;;;;;;;15.30;11.15;;;21.00;99.90;;;;;;4971059;28;20069;-82
2022/08/19 07:39:32;;;;;;;13.20;10.50;;;21.10;99.90;;;;;;4971669;28;20082;-82
2022/08/19 07:42:20;;;;;;;12.93;10.07;;;21.30;99.90;;;;;;4970958;28;20554;-82
2022/08/19 07:45:07;;;;;;;16.73;10.88;;;21.30;99.90;;;;;;4971873;28;20050;-81
2022/08/19 07:47:54;;;;;;;13.00;10.43;;;21.50;99.90;;;;;;4972867;28;20569;-82
2022/08/19 07:50:40;;;;;;;15.18;10.65;;;21.60;99.90;;;;;;4972321;28;20051;-80
2022/08/19 07:53:27;;;;;;;16.60;10.85;;;21.70;99.90;;;;;;4970519;28;20086;-81
2022/08/19 07:56:14;;;;;;;15.48;11.60;;;21.80;99.90;;;;;;4970664;28;20059;-81
2022/08/19 07:59:01;;;;;;;13.27;10.15;;;22.00;99.90;;;;;;4970092;28;20495;-81
2022/08/19 08:01:47;;;;;;;15.18;10.90;;;22.10;99.90;;;;;;4970714;28;20553;-81
2022/08/19 08:10:43;;;;;;;13.10;10.90;;;22.60;99.90;;;;;;4971485;28;20090;-82
2022/08/19 08:13:29;;;;;;;15.05;10.35;;;22.80;99.90;;;;;;4971535;28;20047;-82
2022/08/19 08:16:15;;;;;;;14.05;10.38;;;23.00;99.90;;;;;;4956495;28;20101;-81
2022/08/19 08:19:05;;;;;;;17.20;10.82;;;22.90;99.90;;;;;;4970387;28;20050;-82
2022/08/19 08:21:53;;;;;;;13.40;10.20;;;23.00;99.90;;;;;;4971789;28;20399;-82
2022/08/19 08:24:39;;;;;;;16.90;10.48;;;23.10;99.90;;;;;;4971591;28;20388;-82
2022/08/19 08:27:29;;;;;;;16.95;11.10;;;23.30;99.90;;;;;;4972068;28;20136;-82
2022/08/19 08:30:21;;;;;;;13.77;10.57;;;23.40;99.90;;;;;;4971956;28;20070;-80
2022/08/19 08:33:08;;;;;;;14.38;11.00;;;23.50;99.90;;;;;;4970037;28;20046;-82
2022/08/19 08:35:54;;;;;;;16.15;11.65;;;23.50;99.90;;;;;;4971489;28;20057;-80
2022/08/19 08:38:52;;;;;;;14.45;11.63;;;23.70;99.90;;;;;;4971903;28;20051;-81
2022/08/19 08:42:11;;;;;;;15.45;11.73;;;23.90;99.90;;;;;;4970102;28;20055;-82
2022/08/19 08:45:01;;;;;;;13.98;10.98;;;24.10;99.90;;;;;;4971912;28;20392;-81
2022/08/19 08:47:51;;;;;;;13.23;10.45;;;24.30;99.90;;;;;;4970826;28;20410;-81
2022/08/19 08:50:45;;;;;;;13.57;10.95;;;24.50;99.90;;;;;;4971155;28;20064;-81
2022/08/19 08:53:34;;;;;;;16.38;10.80;;;24.60;99.90;;;;;;4970603;28;20487;-81
2022/08/19 08:56:20;;;;;;;13.65;10.00;;;24.80;99.90;;;;;;4970476;28;20418;-81
2022/08/19 08:59:32;;;;;;;15.27;12.10;;;24.90;99.90;;;;;;4970719;28;20043;-80
2022/08/19 09:02:19;;;;;;;14.38;11.77;;;25.00;99.90;;;;;;4971177;28;20053;-81
2022/08/19 09:05:06;;;;;;;14.35;12.10;;;25.20;99.90;;;;;;4970407;28;20051;-81
2022/08/19 09:08:02;;;;;;;14.98;10.82;;;25.30;99.90;;;;;;4971371;28;20054;-82
2022/08/19 09:10:57;;;;;;;17.67;11.93;;;25.30;99.90;;;;;;4972012;28;20566;-80
2022/08/19 09:13:58;;;;;;;15.40;11.55;;;25.30;99.90;;;;;;4971093;28;20047;-80
2022/08/19 09:16:44;;;;;;;13.25;11.57;;;25.40;99.90;;;;;;4970633;28;20109;-80
2022/08/19 09:19:31;;;;;;;13.52;11.77;;;25.50;99.90;;;;;;4969833;28;20053;-80
2022/08/19 09:22:17;;;;;;;14.48;11.82;;;25.60;99.90;;;;;;4955911;28;20141;-80
2022/08/19 09:25:04;;;;;;;14.75;12.32;;;25.70;99.90;;;;;;4969162;28;20061;-81
2022/08/19 09:27:53;;;;;;;14.65;12.40;;;25.70;99.90;;;;;;4969859;28;20054;-80
2022/08/19 09:30:41;;;;;;;15.82;12.65;;;25.70;99.90;;;;;;4971199;28;20085;-81
2022/08/19 09:33:27;;;;;;;17.42;13.98;;;25.70;99.90;;;;;;4970969;28;20054;-81
2022/08/19 09:36:16;;;;;;;18.63;13.95;;;25.80;99.90;;;;;;4970305;28;20141;-81
2022/08/19 09:39:06;;;;;;;14.82;13.23;;;25.80;99.90;;;;;;4969652;28;20046;-81
2022/08/19 09:41:52;;;;;;;15.57;12.13;;;25.90;99.90;;;;;;4970540;28;20059;-81
2022/08/19 09:44:40;;;;;;;17.15;14.65;;;26.10;99.90;;;;;;4970339;28;20058;-81
2022/08/19 09:47:26;;;;;;;16.08;14.27;;;26.40;99.90;;;;;;4970610;28;20519;-80
2022/08/19 09:50:12;;;;;;;19.30;15.68;;;26.50;99.90;;;;;;4970517;28;20496;-81
2022/08/19 09:52:58;;;;;;;17.15;15.07;;;26.60;99.90;;;;;;4970592;28;20066;-81
2022/08/19 09:55:45;;;;;;;19.15;15.32;;;26.50;99.90;;;;;;4970347;28;20928;-81
2022/08/19 09:58:32;;;;;;;17.92;14.75;;;26.60;99.70;;;;;;4970057;28;20086;-81
2022/08/19 10:01:22;;;;;;;17.60;14.57;;;26.60;99.90;;;;;;4970476;28;20055;-81
2022/08/19 10:04:08;;;;;;;21.10;15.80;;;26.80;99.90;;;;;;4969843;28;20459;-79
2022/08/19 10:06:56;;;;;;;15.95;13.27;;;26.80;99.90;;;;;;4975075;28;20275;-81
2022/08/19 10:09:42;;;;;;;17.15;14.93;;;26.80;99.90;;;;;;4973546;28;20054;-81
2022/08/19 10:12:28;;;;;;;16.00;14.30;;;26.80;99.90;;;;;;4973131;28;20050;-80
2022/08/19 10:15:14;;;;;;;20.40;17.48;;;27.10;99.70;;;;;;4972989;28;20038;-80
2022/08/19 10:18:01;;;;;;;17.95;15.98;;;27.10;99.50;;;;;;4974962;28;20495;-80
2022/08/19 10:20:49;;;;;;;19.75;15.90;;;27.30;99.70;;;;;;4973400;28;20059;-80
2022/08/19 10:23:37;;;;;;;18.52;16.33;;;27.40;99.70;;;;;;4973154;28;20138;-81
2022/08/19 10:26:28;;;;;;;17.50;14.63;;;27.70;99.60;;;;;;4973428;28;20351;-80
2022/08/19 10:29:15;;;;;;;19.48;15.98;;;27.70;98.90;;;;;;4972151;28;20089;-80
2022/08/19 10:32:08;;;;;;;18.85;15.75;;;27.80;99.00;;;;;;4959398;28;20142;-81
2022/08/19 10:34:54;;;;;;;18.75;15.07;;;28.00;98.90;;;;;;4973464;28;20054;-80
2022/08/19 10:37:40;;;;;;;16.40;14.68;;;28.50;99.00;;;;;;4959086;28;20491;-81
2022/08/19 10:40:28;;;;;;;21.83;17.17;;;28.60;98.50;;;;;;4971855;28;20061;-80
2022/08/19 10:43:14;;;;;;;18.90;16.83;;;28.70;97.60;;;;;;4972491;28;20529;-80
2022/08/19 10:46:00;;;;;;;19.92;17.88;;;29.00;97.40;;;;;;4973216;28;20053;-80
2022/08/19 10:48:47;;;;;;;17.50;15.07;;;28.80;97.00;;;;;;4973206;28;20042;-81
2022/08/19 10:57:42;;;;;;;;;;;28.90;96.50;;;;;;4974401;28;20053;-81
2022/08/19 11:00:30;;;;;;;15.52;13.45;;;28.90;96.30;;;;;;4974182;28;19925;-80
2022/08/19 11:03:18;;;;;;;17.33;13.93;;;28.70;96.60;;;;;;4972945;28;20050;-80
2022/08/19 11:06:08;;;;;;;15.70;11.52;;;28.50;96.40;;;;;;4973155;28;20086;-80
2022/08/19 11:08:54;;;;;;;19.30;14.10;;;28.40;97.10;;;;;;4973253;28;20051;-80
2022/08/19 11:11:41;;;;;;;21.50;16.38;;;28.20;97.20;;;;;;4972341;28;20039;-80
2022/08/19 11:14:30;;;;;;;18.33;13.45;;;27.90;97.30;;;;;;4972638;28;20079;-80
2022/08/19 11:17:16;;;;;;;15.13;13.43;;;27.90;97.80;;;;;;4958443;28;20051;-79
2022/08/19 11:20:05;;;;;;;19.70;12.23;;;28.00;97.40;;;;;;4972488;28;20491;-79
2022/08/19 11:22:53;;;;;;;15.70;12.15;;;28.40;97.80;;;;;;4973670;28;20407;-79
2022/08/19 11:25:39;;;;;;;17.75;12.30;;;28.80;97.30;;;;;;4972257;28;20082;-79
2022/08/19 11:28:25;;;;;;;20.25;13.40;;;29.20;96.60;;;;;;4971114;28;20050;-80
2022/08/19 11:31:16;;;;;;;17.42;12.95;;;29.20;95.90;;;;;;4972464;28;20146;-80
2022/08/19 11:34:06;;;;;;;17.98;12.68;;;29.00;96.20;;;;;;4971832;28;20039;-80
2022/08/19 11:36:54;;;;;;;17.25;13.35;;;28.60;96.40;;;;;;4970497;28;20046;-80
2022/08/19 11:39:41;;;;;;;16.58;12.07;;;28.30;96.30;;;;;;4972578;28;20133;-81
2022/08/19 11:45:32;;;;;;;;;;;28.80;96.10;;;;;;4972341;28;20142;-81
2022/08/19 11:48:21;;;;;;;18.83;10.00;;;28.50;97.50;;;;;;4957775;28;19922;-81
2022/08/19 11:51:11;;;;;;;20.02;9.55;;;28.40;98.00;;;;;;4969957;28;20055;-81
2022/08/19 11:53:58;;;;;;;13.70;8.32;;;28.30;98.60;;;;;;4972965;28;20546;-81
2022/08/19 11:56:46;;;;;;;12.55;8.48;;;28.00;98.80;;;;;;4970917;28;20153;-81
2022/08/19 11:59:32;;;;;;;19.63;8.43;;;27.90;99.10;;;;;;4970921;28;20109;-80
2022/08/19 12:02:19;;;;;;;17.58;8.60;;;27.60;99.30;;;;;;4972149;28;20097;-81
2022/08/19 12:05:05;;;;;;;24.20;11.02;;;27.40;99.90;;;;;;4972183;28;20125;-81
2022/08/19 12:07:52;;;;;;;25.73;12.85;;;27.00;99.90;;;;;;4971698;28;20058;-80
2022/08/19 12:10:40;;;;;;;21.67;12.45;;;26.60;99.90;;;;;;4957048;28;20050;-80
2022/08/19 12:13:28;;;;;;;23.50;13.55;;;26.30;99.90;;;;;;4971358;28;20062;-79
2022/08/19 12:16:19;;;;;;;27.65;13.65;;;25.90;99.90;;;;;;4973124;28;20057;-78
2022/08/19 12:19:05;;;;;;;21.75;12.73;;;25.70;99.90;;;;;;4971648;28;20058;-77
2022/08/19 12:21:55;;;;;;;18.77;12.05;;;25.60;99.90;;;;;;4971533;28;20414;-78
2022/08/19 12:24:41;;;;;;;17.25;11.73;;;25.60;99.90;;;;;;4970541;28;20043;-79
2022/08/19 12:27:27;;;;;;;22.27;11.38;;;25.50;99.90;;;;;;4971279;28;20391;-80
2022/08/19 12:30:14;;;;;;;14.60;10.10;;;25.40;99.90;;;;;;4972543;28;20061;-79
2022/08/19 12:33:00;;;;;;;16.02;9.90;;;25.20;99.90;;;;;;4971345;28;20418;-78
2022/08/19 12:35:46;;;;;;;13.38;9.70;;;25.20;99.90;;;;;;4971959;28;20063;-77
2022/08/19 12:38:34;;;;;;;20.75;10.95;;;25.20;99.90;;;;;;4970999;28;20058;-80
2022/08/19 12:41:22;;;;;;;17.83;11.23;;;25.00;99.90;;;;;;4970170;28;20077;-80
2022/08/19 12:44:08;;;;;;;16.15;9.55;;;25.00;99.90;;;;;;4970944;28;20046;-80
2022/08/19 12:46:54;;;;;;;17.77;9.73;;;25.00;99.90;;;;;;4971936;28;20125;-80
2022/08/19 12:49:40;;;;;;;16.40;8.35;;;25.00;99.90;;;;;;4970714;28;20164;-78
2022/08/19 12:52:27;;;;;;;12.35;7.30;;;25.00;99.90;;;;;;4971942;28;20054;-80
2022/08/19 12:55:14;;;;;;;7.72;6.25;;;24.90;99.90;;;;;;4971016;28;20522;-81
2022/08/19 12:58:03;;;;;;;9.02;5.82;;;24.80;99.90;;;;;;4970946;28;20050;-80
2022/08/19 13:00:49;;;;;;;9.85;5.18;;;24.70;99.90;;;;;;4971055;28;20051;-78
2022/08/19 13:03:36;;;;;;;9.98;5.60;;;24.50;99.90;;;;;;4971314;28;20058;-79
2022/08/19 13:06:22;;;;;;;11.25;6.15;;;24.30;99.90;;;;;;4972317;28;20042;-79
2022/08/19 13:09:09;;;;;;;10.75;5.55;;;24.30;99.90;;;;;;4971891;28;20522;-79
2022/08/19 13:11:56;;;;;;;11.55;5.78;;;24.30;99.90;;;;;;4971671;28;20094;-80
2022/08/19 13:14:44;;;;;;;9.82;4.68;;;24.30;99.90;;;;;;4971152;28;20057;-81
2022/08/19 13:17:30;;;;;;;9.80;6.20;;;24.30;99.90;;;;;;4969765;28;20152;-80
2022/08/19 13:20:19;;;;;;;12.60;6.47;;;24.40;99.90;;;;;;4970208;28;20054;-80
2022/08/19 13:23:05;;;;;;;11.20;7.10;;;24.40;99.90;;;;;;4970689;28;20511;-81
2022/08/19 13:25:59;;;;;;;14.85;5.97;;;24.50;99.90;;;;;;4969974;28;20145;-81
2022/08/19 13:34:55;;;;;;;7.05;4.00;;;24.50;99.90;;;;;;4971488;28;20043;-80
2022/08/19 13:37:41;;;;;;;7.95;4.65;;;24.40;99.90;;;;;;4970648;28;20038;-82
2022/08/19 13:40:28;;;;;;;11.75;5.50;;;24.50;99.90;;;;;;4958721;28;20058;-81
2022/08/19 13:43:16;;;;;;;13.65;7.55;;;24.50;99.90;;;;;;4973985;28;20181;-81
2022/08/19 13:46:10;;;;;;;15.40;9.50;;;24.60;99.90;;;;;;4974527;28;20492;-81
2022/08/19 13:48:57;;;;;;;14.07;10.13;;;24.70;99.90;;;;;;4974527;28;20582;-81
2022/08/19 13:51:44;;;;;;;16.35;10.73;;;25.60;99.90;;;;;;4974247;28;20062;-81
2022/08/19 13:54:30;;;;;;;19.88;10.55;;;26.70;99.90;;;;;;4973597;28;20602;-80
2022/08/19 13:57:17;;;;;;;16.35;9.52;;;28.50;99.90;;;;;;4973529;28;20050;-81
2022/08/19 14:00:05;;;;;;;19.27;9.68;;;28.90;99.60;;;;;;4974803;28;20135;-82
2022/08/19 14:02:54;;;;;;;16.00;8.38;;;28.80;99.50;;;;;;4974374;28;20043;-81
2022/08/19 14:05:41;;;;;;;14.18;7.85;;;29.70;99.50;;;;;;4974409;28;20510;-81
2022/08/19 14:08:30;;;;;;;15.15;7.90;;;30.10;98.50;;;;;;4989950;28;20058;-81
2022/08/19 14:11:16;;;;;;;13.07;7.97;;;29.80;98.40;;;;;;4974157;28;20051;-81
2022/08/19 14:14:03;;;;;;;16.10;8.32;;;29.40;98.50;;;;;;4974875;28;20403;-81
2022/08/19 14:16:49;;;;;;;13.82;7.07;;;29.20;98.80;;;;;;4973990;28;20463;-81
2022/08/19 14:19:35;;;;;;;13.25;7.88;;;29.30;98.60;;;;;;4972023;28;20107;-81
2022/08/19 14:22:22;;;;;;;15.00;9.05;;;28.80;98.70;;;;;;4972811;28;20054;-81
2022/08/19 14:25:13;;;;;;;13.40;8.00;;;28.40;98.70;;;;;;4974503;28;20172;-80
2022/08/19 14:28:00;;;;;;;19.27;8.60;;;28.10;99.40;;;;;;4972953;28;20495;-80
2022/08/19 14:30:46;;;;;;;13.25;7.53;;;28.30;99.70;;;;;;4986885;28;20050;-80
2022/08/19 14:33:32;;;;;;;16.77;9.07;;;28.10;99.50;;;;;;4972861;28;20145;-80
2022/08/19 14:36:20;;;;;;;18.00;7.68;;;28.10;99.60;;;;;;4971705;28;20530;-81
2022/08/19 14:39:07;;;;;;;15.07;9.25;;;28.00;99.80;;;;;;4972934;28;20109;-81
2022/08/19 14:41:54;;;;;;;15.20;9.27;;;27.70;99.80;;;;;;4972050;28;20201;-80
2022/08/19 14:44:41;;;;;;;13.88;8.77;;;27.20;99.90;;;;;;4972907;28;20047;-80
2022/08/19 14:47:27;;;;;;;16.27;9.15;;;26.90;99.90;;;;;;4973653;28;20690;-79